sensor_id;sensor_type;location;lat;lon;timestamp;P1;durP1;ratioP1;P2;durP2;ratioP2
61096;SDS011;46977;50.936;6.908;2023-02-18T00:01:32;5.70;;;3.92;;
61096;SDS011;46977;50.936;6.908;2023-02-18T00:04:35;3.80;;;3.25;;
61096;SDS011;46977;50.936;6.908;2023-02-18T00:07:38;4.35;;;3.45;;
61096;SDS011;46977;50.936;6.908;2023-02-18T00:10:42;4.07;;;3.63;;
61096;SDS011;46977;50.936;6.908;2023-02-18T00:13:48;4.20;;;3.35;;
61096;SDS011;46977;50.936;6.908;2023-02-18T00:16:51;3.47;;;3.17;;
61096;SDS011;46977;50.936;6.908;2023-02-18T00:19:53;4.93;;;3.63;;
61096;SDS011;46977;50.936;6.908;2023-02-18T00:22:55;3.35;;;3.05;;
61096;SDS011;46977;50.936;6.908;2023-02-18T00:25:59;4.65;;;4.05;;
61096;SDS011;46977;50.936;6.908;2023-02-18T00:29:02;3.92;;;3.53;;
61096;SDS011;46977;50.936;6.908;2023-02-18T00:32:05;3.45;;;3.15;;
61096;SDS011;46977;50.936;6.908;2023-02-18T00:35:07;4.40;;;3.22;;
61096;SDS011;46977;50.936;6.908;2023-02-18T00:38:10;3.92;;;3.55;;
61096;SDS011;46977;50.936;6.908;2023-02-18T00:41:14;3.92;;;3.47;;
61096;SDS011;46977;50.936;6.908;2023-02-18T00:44:16;3.42;;;2.75;;
61096;SDS011;46977;50.936;6.908;2023-02-18T00:47:18;4.10;;;2.72;;
61096;SDS011;46977;50.936;6.908;2023-02-18T00:50:21;4.43;;;2.97;;
61096;SDS011;46977;50.936;6.908;2023-02-18T00:53:24;3.90;;;2.90;;
61096;SDS011;46977;50.936;6.908;2023-02-18T00:56:28;4.22;;;3.25;;
61096;SDS011;46977;50.936;6.908;2023-02-18T00:59:30;3.20;;;2.80;;
61096;SDS011;46977;50.936;6.908;2023-02-18T01:02:35;2.85;;;2.45;;
61096;SDS011;46977;50.936;6.908;2023-02-18T01:05:38;5.55;;;3.03;;
61096;SDS011;46977;50.936;6.908;2023-02-18T01:08:41;2.35;;;2.15;;
61096;SDS011;46977;50.936;6.908;2023-02-18T01:11:45;2.30;;;2.10;;
61096;SDS011;46977;50.936;6.908;2023-02-18T01:14:47;2.75;;;2.50;;
61096;SDS011;46977;50.936;6.908;2023-02-18T01:17:50;3.03;;;2.75;;
61096;SDS011;46977;50.936;6.908;2023-02-18T01:20:52;2.30;;;2.05;;
61096;SDS011;46977;50.936;6.908;2023-02-18T01:23:55;3.30;;;2.80;;
61096;SDS011;46977;50.936;6.908;2023-02-18T01:27:00;2.33;;;2.10;;
61096;SDS011;46977;50.936;6.908;2023-02-18T01:30:03;3.08;;;2.80;;
61096;SDS011;46977;50.936;6.908;2023-02-18T01:33:07;2.97;;;2.60;;
61096;SDS011;46977;50.936;6.908;2023-02-18T01:36:12;2.15;;;1.95;;
61096;SDS011;46977;50.936;6.908;2023-02-18T01:39:14;2.33;;;2.13;;
61096;SDS011;46977;50.936;6.908;2023-02-18T01:42:19;2.38;;;2.17;;
61096;SDS011;46977;50.936;6.908;2023-02-18T01:45:39;2.83;;;2.13;;
61096;SDS011;46977;50.936;6.908;2023-02-18T01:48:51;2.55;;;2.35;;
61096;SDS011;46977;50.936;6.908;2023-02-18T01:51:56;2.10;;;1.90;;
61096;SDS011;46977;50.936;6.908;2023-02-18T01:55:00;2.75;;;2.55;;
61096;SDS011;46977;50.936;6.908;2023-02-18T01:58:03;2.72;;;2.53;;
61096;SDS011;46977;50.936;6.908;2023-02-18T02:01:06;2.50;;;2.17;;
61096;SDS011;46977;50.936;6.908;2023-02-18T02:04:10;2.35;;;2.10;;
61096;SDS011;46977;50.936;6.908;2023-02-18T02:07:15;2.30;;;2.10;;
61096;SDS011;46977;50.936;6.908;2023-02-18T02:10:19;2.53;;;2.33;;
61096;SDS011;46977;50.936;6.908;2023-02-18T02:13:25;3.50;;;3.13;;
61096;SDS011;46977;50.936;6.908;2023-02-18T02:16:36;3.40;;;3.10;;
61096;SDS011;46977;50.936;6.908;2023-02-18T02:20:00;3.40;;;3.10;;
61096;SDS011;46977;50.936;6.908;2023-02-18T02:23:38;3.42;;;2.70;;
61096;SDS011;46977;50.936;6.908;2023-02-18T02:26:57;3.08;;;2.78;;
61096;SDS011;46977;50.936;6.908;2023-02-18T02:40:40;3.17;;;2.88;;
61096;SDS011;46977;50.936;6.908;2023-02-18T02:43:49;4.15;;;3.10;;
61096;SDS011;46977;50.936;6.908;2023-02-18T02:46:56;3.33;;;2.92;;
61096;SDS011;46977;50.936;6.908;2023-02-18T02:50:06;3.13;;;2.83;;
61096;SDS011;46977;50.936;6.908;2023-02-18T02:53:12;2.95;;;2.65;;
61096;SDS011;46977;50.936;6.908;2023-02-18T02:56:18;2.85;;;2.20;;
61096;SDS011;46977;50.936;6.908;2023-02-18T02:59:24;2.67;;;2.45;;
61096;SDS011;46977;50.936;6.908;2023-02-18T03:02:32;2.13;;;1.88;;
61096;SDS011;46977;50.936;6.908;2023-02-18T03:05:42;2.72;;;1.67;;
61096;SDS011;46977;50.936;6.908;2023-02-18T03:08:55;1.40;;;1.25;;
61096;SDS011;46977;50.936;6.908;2023-02-18T03:12:05;1.53;;;1.33;;
61096;SDS011;46977;50.936;6.908;2023-02-18T03:15:13;1.88;;;1.08;;
61096;SDS011;46977;50.936;6.908;2023-02-18T03:18:23;0.95;;;0.95;;
61096;SDS011;46977;50.936;6.908;2023-02-18T03:21:28;1.25;;;1.00;;
61096;SDS011;46977;50.936;6.908;2023-02-18T03:24:38;0.70;;;0.70;;
61096;SDS011;46977;50.936;6.908;2023-02-18T03:27:42;0.82;;;0.70;;
61096;SDS011;46977;50.936;6.908;2023-02-18T03:30:47;0.90;;;0.63;;
61096;SDS011;46977;50.936;6.908;2023-02-18T03:33:53;0.68;;;0.68;;
61096;SDS011;46977;50.936;6.908;2023-02-18T03:36:58;0.90;;;0.75;;
61096;SDS011;46977;50.936;6.908;2023-02-18T03:40:03;0.50;;;0.50;;
61096;SDS011;46977;50.936;6.908;2023-02-18T03:43:07;0.73;;;0.60;;
61096;SDS011;46977;50.936;6.908;2023-02-18T03:46:09;0.70;;;0.60;;
61096;SDS011;46977;50.936;6.908;2023-02-18T03:49:13;0.70;;;0.70;;
61096;SDS011;46977;50.936;6.908;2023-02-18T03:52:16;0.60;;;0.60;;
61096;SDS011;46977;50.936;6.908;2023-02-18T03:55:20;0.90;;;0.70;;
61096;SDS011;46977;50.936;6.908;2023-02-18T03:58:22;1.42;;;0.70;;
61096;SDS011;46977;50.936;6.908;2023-02-18T04:01:25;0.70;;;0.57;;
61096;SDS011;46977;50.936;6.908;2023-02-18T04:04:27;0.75;;;0.52;;
61096;SDS011;46977;50.936;6.908;2023-02-18T04:07:30;1.02;;;0.43;;
61096;SDS011;46977;50.936;6.908;2023-02-18T04:10:33;0.30;;;0.30;;
61096;SDS011;46977;50.936;6.908;2023-02-18T04:13:36;0.80;;;0.30;;
61096;SDS011;46977;50.936;6.908;2023-02-18T04:16:38;0.30;;;0.10;;
61096;SDS011;46977;50.936;6.908;2023-02-18T04:19:41;0.30;;;0.30;;
61096;SDS011;46977;50.936;6.908;2023-02-18T04:22:43;0.20;;;0.20;;
61096;SDS011;46977;50.936;6.908;2023-02-18T04:25:47;0.10;;;0.10;;
61096;SDS011;46977;50.936;6.908;2023-02-18T04:28:49;0.88;;;0.30;;
61096;SDS011;46977;50.936;6.908;2023-02-18T04:31:52;1.40;;;0.22;;
61096;SDS011;46977;50.936;6.908;2023-02-18T04:34:54;0.73;;;0.30;;
61096;SDS011;46977;50.936;6.908;2023-02-18T04:37:57;0.40;;;0.30;;
61096;SDS011;46977;50.936;6.908;2023-02-18T04:41:00;0.30;;;0.30;;
61096;SDS011;46977;50.936;6.908;2023-02-18T04:44:03;0.20;;;0.20;;
61096;SDS011;46977;50.936;6.908;2023-02-18T04:47:05;1.35;;;0.38;;
61096;SDS011;46977;50.936;6.908;2023-02-18T04:50:08;0.40;;;0.35;;
61096;SDS011;46977;50.936;6.908;2023-02-18T04:53:13;1.20;;;0.30;;
61096;SDS011;46977;50.936;6.908;2023-02-18T04:56:17;0.30;;;0.20;;
61096;SDS011;46977;50.936;6.908;2023-02-18T04:59:19;0.20;;;0.20;;
61096;SDS011;46977;50.936;6.908;2023-02-18T05:02:22;0.25;;;0.25;;
61096;SDS011;46977;50.936;6.908;2023-02-18T05:05:24;0.10;;;0.10;;
61096;SDS011;46977;50.936;6.908;2023-02-18T05:08:26;0.30;;;0.15;;
61096;SDS011;46977;50.936;6.908;2023-02-18T05:11:30;0.20;;;0.20;;
61096;SDS011;46977;50.936;6.908;2023-02-18T05:14:32;0.20;;;0.10;;
61096;SDS011;46977;50.936;6.908;2023-02-18T05:17:35;0.77;;;0.10;;
61096;SDS011;46977;50.936;6.908;2023-02-18T05:20:37;0.20;;;0.20;;
61096;SDS011;46977;50.936;6.908;2023-02-18T05:23:39;0.13;;;0.13;;
61096;SDS011;46977;50.936;6.908;2023-02-18T05:26:43;0.63;;;0.20;;
61096;SDS011;46977;50.936;6.908;2023-02-18T05:29:45;0.60;;;0.30;;
61096;SDS011;46977;50.936;6.908;2023-02-18T05:32:48;0.65;;;0.65;;
61096;SDS011;46977;50.936;6.908;2023-02-18T05:35:50;0.22;;;0.22;;
61096;SDS011;46977;50.936;6.908;2023-02-18T05:38:53;0.30;;;0.20;;
61096;SDS011;46977;50.936;6.908;2023-02-18T05:41:56;0.95;;;0.20;;
61096;SDS011;46977;50.936;6.908;2023-02-18T05:44:59;1.05;;;0.20;;
61096;SDS011;46977;50.936;6.908;2023-02-18T05:48:02;1.00;;;0.20;;
61096;SDS011;46977;50.936;6.908;2023-02-18T05:51:04;0.70;;;0.30;;
61096;SDS011;46977;50.936;6.908;2023-02-18T05:54:07;2.05;;;0.40;;
61096;SDS011;46977;50.936;6.908;2023-02-18T05:57:10;0.55;;;0.45;;
61096;SDS011;46977;50.936;6.908;2023-02-18T06:00:14;0.70;;;0.60;;
61096;SDS011;46977;50.936;6.908;2023-02-18T06:03:17;0.77;;;0.77;;
61096;SDS011;46977;50.936;6.908;2023-02-18T06:06:19;0.43;;;0.40;;
61096;SDS011;46977;50.936;6.908;2023-02-18T06:09:22;0.50;;;0.43;;
61096;SDS011;46977;50.936;6.908;2023-02-18T06:12:25;0.40;;;0.32;;
61096;SDS011;46977;50.936;6.908;2023-02-18T06:15:28;0.30;;;0.30;;
61096;SDS011;46977;50.936;6.908;2023-02-18T06:18:30;0.22;;;0.22;;
61096;SDS011;46977;50.936;6.908;2023-02-18T06:21:32;0.32;;;0.32;;
61096;SDS011;46977;50.936;6.908;2023-02-18T06:24:35;0.30;;;0.30;;
61096;SDS011;46977;50.936;6.908;2023-02-18T06:27:39;0.40;;;0.40;;
61096;SDS011;46977;50.936;6.908;2023-02-18T06:30:41;0.25;;;0.22;;
61096;SDS011;46977;50.936;6.908;2023-02-18T06:33:43;0.25;;;0.20;;
61096;SDS011;46977;50.936;6.908;2023-02-18T06:36:46;0.15;;;0.15;;
61096;SDS011;46977;50.936;6.908;2023-02-18T06:39:48;1.05;;;0.30;;
61096;SDS011;46977;50.936;6.908;2023-02-18T06:42:52;0.30;;;0.30;;
61096;SDS011;46977;50.936;6.908;2023-02-18T06:45:54;0.20;;;0.20;;
61096;SDS011;46977;50.936;6.908;2023-02-18T06:48:57;0.20;;;0.20;;
61096;SDS011;46977;50.936;6.908;2023-02-18T06:51:59;0.10;;;0.10;;
61096;SDS011;46977;50.936;6.908;2023-02-18T06:55:02;0.20;;;0.10;;
61096;SDS011;46977;50.936;6.908;2023-02-18T06:58:06;0.05;;;0.03;;
61096;SDS011;46977;50.936;6.908;2023-02-18T07:01:08;0.10;;;0.10;;
61096;SDS011;46977;50.936;6.908;2023-02-18T07:04:11;0.10;;;0.10;;
61096;SDS011;46977;50.936;6.908;2023-02-18T07:07:13;0.13;;;0.10;;
61096;SDS011;46977;50.936;6.908;2023-02-18T07:10:16;0.63;;;0.22;;
61096;SDS011;46977;50.936;6.908;2023-02-18T07:13:19;0.55;;;0.00;;
61096;SDS011;46977;50.936;6.908;2023-02-18T07:16:22;0.40;;;0.10;;
61096;SDS011;46977;50.936;6.908;2023-02-18T07:19:24;0.10;;;0.10;;
61096;SDS011;46977;50.936;6.908;2023-02-18T07:22:27;0.30;;;0.00;;
61096;SDS011;46977;50.936;6.908;2023-02-18T07:25:29;3.53;;;0.20;;
61096;SDS011;46977;50.936;6.908;2023-02-18T07:28:33;0.10;;;0.10;;
61096;SDS011;46977;50.936;6.908;2023-02-18T07:31:35;0.55;;;0.10;;
61096;SDS011;46977;50.936;6.908;2023-02-18T07:34:39;0.10;;;0.10;;
61096;SDS011;46977;50.936;6.908;2023-02-18T07:37:43;0.20;;;0.20;;
61096;SDS011;46977;50.936;6.908;2023-02-18T07:40:46;0.90;;;0.10;;
61096;SDS011;46977;50.936;6.908;2023-02-18T07:43:49;0.00;;;0.00;;
61096;SDS011;46977;50.936;6.908;2023-02-18T07:46:52;0.10;;;0.10;;
61096;SDS011;46977;50.936;6.908;2023-02-18T07:49:54;0.00;;;0.00;;
61096;SDS011;46977;50.936;6.908;2023-02-18T07:52:56;0.05;;;0.05;;
61096;SDS011;46977;50.936;6.908;2023-02-18T07:55:59;0.10;;;0.10;;
61096;SDS011;46977;50.936;6.908;2023-02-18T07:59:02;0.30;;;0.13;;
61096;SDS011;46977;50.936;6.908;2023-02-18T08:02:05;0.15;;;0.10;;
61096;SDS011;46977;50.936;6.908;2023-02-18T08:05:08;0.15;;;0.10;;
61096;SDS011;46977;50.936;6.908;2023-02-18T08:08:12;0.40;;;0.40;;
61096;SDS011;46977;50.936;6.908;2023-02-18T08:11:15;0.25;;;0.20;;
61096;SDS011;46977;50.936;6.908;2023-02-18T08:14:22;0.30;;;0.20;;
61096;SDS011;46977;50.936;6.908;2023-02-18T08:17:24;0.60;;;0.20;;
61096;SDS011;46977;50.936;6.908;2023-02-18T08:20:26;0.40;;;0.20;;
61096;SDS011;46977;50.936;6.908;2023-02-18T08:23:31;4.95;;;0.50;;
61096;SDS011;46977;50.936;6.908;2023-02-18T08:26:33;0.40;;;0.38;;
61096;SDS011;46977;50.936;6.908;2023-02-18T08:29:37;2.45;;;0.38;;
61096;SDS011;46977;50.936;6.908;2023-02-18T08:32:40;1.40;;;0.50;;
61096;SDS011;46977;50.936;6.908;2023-02-18T08:35:42;1.83;;;0.43;;
61096;SDS011;46977;50.936;6.908;2023-02-18T08:38:44;1.42;;;0.60;;
61096;SDS011;46977;50.936;6.908;2023-02-18T08:41:47;4.82;;;0.60;;
61096;SDS011;46977;50.936;6.908;2023-02-18T08:44:51;1.67;;;0.40;;
61096;SDS011;46977;50.936;6.908;2023-02-18T08:47:53;3.13;;;0.63;;
61096;SDS011;46977;50.936;6.908;2023-02-18T08:51:16;1.67;;;0.50;;
61096;SDS011;46977;50.936;6.908;2023-02-18T08:54:20;1.67;;;0.70;;
61096;SDS011;46977;50.936;6.908;2023-02-18T08:57:22;3.03;;;0.57;;
61096;SDS011;46977;50.936;6.908;2023-02-18T09:00:26;5.22;;;0.63;;
61096;SDS011;46977;50.936;6.908;2023-02-18T09:03:28;4.50;;;0.90;;
61096;SDS011;46977;50.936;6.908;2023-02-18T09:06:31;3.50;;;0.60;;
61096;SDS011;46977;50.936;6.908;2023-02-18T09:09:33;2.03;;;0.60;;
61096;SDS011;46977;50.936;6.908;2023-02-18T09:12:35;1.60;;;0.60;;
61096;SDS011;46977;50.936;6.908;2023-02-18T09:15:39;2.17;;;0.50;;
61096;SDS011;46977;50.936;6.908;2023-02-18T09:18:42;3.35;;;0.60;;
61096;SDS011;46977;50.936;6.908;2023-02-18T09:21:44;2.10;;;0.70;;
61096;SDS011;46977;50.936;6.908;2023-02-18T09:24:47;2.60;;;0.90;;
61096;SDS011;46977;50.936;6.908;2023-02-18T09:27:49;2.78;;;0.65;;
61096;SDS011;46977;50.936;6.908;2023-02-18T09:30:53;2.30;;;0.93;;
61096;SDS011;46977;50.936;6.908;2023-02-18T09:33:56;1.08;;;0.70;;
61096;SDS011;46977;50.936;6.908;2023-02-18T09:37:00;3.67;;;0.57;;
61096;SDS011;46977;50.936;6.908;2023-02-18T09:40:03;3.05;;;0.50;;
61096;SDS011;46977;50.936;6.908;2023-02-18T09:43:06;1.80;;;0.70;;
61096;SDS011;46977;50.936;6.908;2023-02-18T09:46:18;2.08;;;0.38;;
61096;SDS011;46977;50.936;6.908;2023-02-18T09:49:23;4.47;;;0.60;;
61096;SDS011;46977;50.936;6.908;2023-02-18T09:52:27;1.77;;;0.68;;
61096;SDS011;46977;50.936;6.908;2023-02-18T09:55:32;3.38;;;0.60;;
61096;SDS011;46977;50.936;6.908;2023-02-18T09:58:37;3.00;;;0.70;;
61096;SDS011;46977;50.936;6.908;2023-02-18T10:01:41;3.25;;;0.75;;
61096;SDS011;46977;50.936;6.908;2023-02-18T10:04:44;4.70;;;0.63;;
61096;SDS011;46977;50.936;6.908;2023-02-18T10:07:53;3.58;;;0.75;;
61096;SDS011;46977;50.936;6.908;2023-02-18T10:10:57;4.45;;;0.60;;
61096;SDS011;46977;50.936;6.908;2023-02-18T10:14:00;4.25;;;0.68;;
61096;SDS011;46977;50.936;6.908;2023-02-18T10:21:15;4.80;;;0.47;;
61096;SDS011;46977;50.936;6.908;2023-02-18T10:24:32;2.17;;;0.55;;
61096;SDS011;46977;50.936;6.908;2023-02-18T10:27:41;2.22;;;0.70;;
61096;SDS011;46977;50.936;6.908;2023-02-18T10:31:28;2.85;;;0.60;;
61096;SDS011;46977;50.936;6.908;2023-02-18T10:40:17;1.75;;;0.77;;
61096;SDS011;46977;50.936;6.908;2023-02-18T10:45:49;4.15;;;0.70;;
61096;SDS011;46977;50.936;6.908;2023-02-18T10:50:10;4.28;;;0.77;;
61096;SDS011;46977;50.936;6.908;2023-02-18T10:53:43;2.40;;;0.80;;
61096;SDS011;46977;50.936;6.908;2023-02-18T10:56:49;3.20;;;0.70;;
61096;SDS011;46977;50.936;6.908;2023-02-18T10:59:57;2.80;;;1.15;;
61096;SDS011;46977;50.936;6.908;2023-02-18T11:03:03;1.73;;;1.00;;
61096;SDS011;46977;50.936;6.908;2023-02-18T11:06:24;3.88;;;0.93;;
61096;SDS011;46977;50.936;6.908;2023-02-18T11:09:32;2.13;;;0.90;;
61096;SDS011;46977;50.936;6.908;2023-02-18T11:12:42;1.35;;;0.82;;
61096;SDS011;46977;50.936;6.908;2023-02-18T11:15:55;3.10;;;1.00;;
61096;SDS011;46977;50.936;6.908;2023-02-18T11:19:02;2.15;;;1.15;;
61096;SDS011;46977;50.936;6.908;2023-02-18T11:22:25;1.42;;;0.80;;
61096;SDS011;46977;50.936;6.908;2023-02-18T11:25:38;2.28;;;0.90;;
61096;SDS011;46977;50.936;6.908;2023-02-18T11:28:44;1.08;;;0.80;;
61096;SDS011;46977;50.936;6.908;2023-02-18T11:32:00;0.80;;;0.70;;
61096;SDS011;46977;50.936;6.908;2023-02-18T11:35:38;0.80;;;0.70;;
61096;SDS011;46977;50.936;6.908;2023-02-18T11:38:48;0.70;;;0.70;;
61096;SDS011;46977;50.936;6.908;2023-02-18T11:41:56;0.60;;;0.60;;
61096;SDS011;46977;50.936;6.908;2023-02-18T11:45:00;1.30;;;0.60;;
61096;SDS011;46977;50.936;6.908;2023-02-18T11:48:07;2.70;;;0.80;;
61096;SDS011;46977;50.936;6.908;2023-02-18T11:51:26;2.70;;;0.90;;
61096;SDS011;46977;50.936;6.908;2023-02-18T11:55:03;0.57;;;0.57;;
61096;SDS011;46977;50.936;6.908;2023-02-18T11:58:14;1.27;;;0.50;;
61096;SDS011;46977;50.936;6.908;2023-02-18T12:01:26;2.38;;;0.60;;
61096;SDS011;46977;50.936;6.908;2023-02-18T12:04:35;1.70;;;1.05;;
61096;SDS011;46977;50.936;6.908;2023-02-18T12:07:46;1.42;;;0.70;;
61096;SDS011;46977;50.936;6.908;2023-02-18T12:10:56;1.85;;;0.70;;
61096;SDS011;46977;50.936;6.908;2023-02-18T12:14:07;0.82;;;0.47;;
61096;SDS011;46977;50.936;6.908;2023-02-18T12:20:46;0.50;;;0.50;;
61096;SDS011;46977;50.936;6.908;2023-02-18T12:23:56;1.50;;;0.45;;
61096;SDS011;46977;50.936;6.908;2023-02-18T12:27:08;0.55;;;0.50;;
61096;SDS011;46977;50.936;6.908;2023-02-18T12:30:20;1.00;;;0.50;;
61096;SDS011;46977;50.936;6.908;2023-02-18T12:33:35;1.20;;;0.47;;
61096;SDS011;46977;50.936;6.908;2023-02-18T12:36:47;0.95;;;0.60;;
61096;SDS011;46977;50.936;6.908;2023-02-18T12:40:04;1.30;;;0.63;;
61096;SDS011;46977;50.936;6.908;2023-02-18T12:43:26;1.25;;;0.60;;
61096;SDS011;46977;50.936;6.908;2023-02-18T12:46:39;0.40;;;0.40;;
61096;SDS011;46977;50.936;6.908;2023-02-18T12:49:53;0.98;;;0.57;;
61096;SDS011;46977;50.936;6.908;2023-02-18T12:53:25;1.10;;;0.55;;
61096;SDS011;46977;50.936;6.908;2023-02-18T12:56:36;0.57;;;0.50;;
61096;SDS011;46977;50.936;6.908;2023-02-18T13:03:30;0.85;;;0.50;;
61096;SDS011;46977;50.936;6.908;2023-02-18T13:10:42;0.50;;;0.50;;
61096;SDS011;46977;50.936;6.908;2023-02-18T13:13:55;1.27;;;0.45;;
61096;SDS011;46977;50.936;6.908;2023-02-18T13:17:02;3.22;;;0.63;;
61096;SDS011;46977;50.936;6.908;2023-02-18T13:20:08;1.17;;;0.50;;
61096;SDS011;46977;50.936;6.908;2023-02-18T13:23:16;0.60;;;0.60;;
61096;SDS011;46977;50.936;6.908;2023-02-18T13:26:20;0.57;;;0.50;;
61096;SDS011;46977;50.936;6.908;2023-02-18T13:29:25;0.40;;;0.40;;
61096;SDS011;46977;50.936;6.908;2023-02-18T13:32:34;0.50;;;0.50;;
61096;SDS011;46977;50.936;6.908;2023-02-18T13:35:40;0.95;;;0.43;;
61096;SDS011;46977;50.936;6.908;2023-02-18T13:38:50;0.85;;;0.50;;
61096;SDS011;46977;50.936;6.908;2023-02-18T13:42:09;0.95;;;0.50;;
61096;SDS011;46977;50.936;6.908;2023-02-18T13:45:22;0.50;;;0.50;;
61096;SDS011;46977;50.936;6.908;2023-02-18T13:48:28;0.75;;;0.45;;
61096;SDS011;46977;50.936;6.908;2023-02-18T13:51:31;0.95;;;0.50;;
61096;SDS011;46977;50.936;6.908;2023-02-18T13:54:37;2.53;;;0.60;;
61096;SDS011;46977;50.936;6.908;2023-02-18T13:57:48;0.50;;;0.50;;
61096;SDS011;46977;50.936;6.908;2023-02-18T14:00:56;1.48;;;0.55;;
61096;SDS011;46977;50.936;6.908;2023-02-18T14:08:28;1.90;;;0.60;;
61096;SDS011;46977;50.936;6.908;2023-02-18T14:11:33;0.47;;;0.47;;
61096;SDS011;46977;50.936;6.908;2023-02-18T14:14:43;0.82;;;0.45;;
61096;SDS011;46977;50.936;6.908;2023-02-18T14:17:47;0.70;;;0.47;;
61096;SDS011;46977;50.936;6.908;2023-02-18T14:20:50;0.47;;;0.40;;
61096;SDS011;46977;50.936;6.908;2023-02-18T14:23:56;0.38;;;0.38;;
61096;SDS011;46977;50.936;6.908;2023-02-18T14:27:05;0.75;;;0.30;;
61096;SDS011;46977;50.936;6.908;2023-02-18T14:30:14;0.32;;;0.32;;
61096;SDS011;46977;50.936;6.908;2023-02-18T14:33:19;0.82;;;0.35;;
61096;SDS011;46977;50.936;6.908;2023-02-18T14:36:24;0.30;;;0.30;;
61096;SDS011;46977;50.936;6.908;2023-02-18T14:39:39;1.38;;;0.30;;
61096;SDS011;46977;50.936;6.908;2023-02-18T14:42:48;0.30;;;0.30;;
61096;SDS011;46977;50.936;6.908;2023-02-18T14:46:04;0.50;;;0.30;;
61096;SDS011;46977;50.936;6.908;2023-02-18T14:49:27;0.45;;;0.30;;
61096;SDS011;46977;50.936;6.908;2023-02-18T14:52:39;0.65;;;0.40;;
61096;SDS011;46977;50.936;6.908;2023-02-18T14:55:46;0.35;;;0.30;;
61096;SDS011;46977;50.936;6.908;2023-02-18T14:58:51;0.82;;;0.30;;
61096;SDS011;46977;50.936;6.908;2023-02-18T15:01:55;0.30;;;0.30;;
61096;SDS011;46977;50.936;6.908;2023-02-18T15:05:14;0.30;;;0.30;;
61096;SDS011;46977;50.936;6.908;2023-02-18T15:08:18;0.30;;;0.30;;
61096;SDS011;46977;50.936;6.908;2023-02-18T15:11:26;0.40;;;0.32;;
61096;SDS011;46977;50.936;6.908;2023-02-18T15:14:35;0.47;;;0.43;;
61096;SDS011;46977;50.936;6.908;2023-02-18T15:17:43;2.25;;;0.40;;
61096;SDS011;46977;50.936;6.908;2023-02-18T15:20:47;0.52;;;0.20;;
61096;SDS011;46977;50.936;6.908;2023-02-18T15:23:49;0.45;;;0.30;;
61096;SDS011;46977;50.936;6.908;2023-02-18T15:26:54;0.77;;;0.77;;
61096;SDS011;46977;50.936;6.908;2023-02-18T15:30:03;0.30;;;0.30;;
61096;SDS011;46977;50.936;6.908;2023-02-18T15:33:20;0.30;;;0.30;;
61096;SDS011;46977;50.936;6.908;2023-02-18T15:36:24;1.10;;;0.40;;
61096;SDS011;46977;50.936;6.908;2023-02-18T15:39:26;0.30;;;0.30;;
61096;SDS011;46977;50.936;6.908;2023-02-18T15:42:33;0.75;;;0.30;;
61096;SDS011;46977;50.936;6.908;2023-02-18T15:45:37;1.92;;;0.40;;
61096;SDS011;46977;50.936;6.908;2023-02-18T15:48:44;0.75;;;0.52;;
61096;SDS011;46977;50.936;6.908;2023-02-18T15:51:47;0.63;;;0.63;;
61096;SDS011;46977;50.936;6.908;2023-02-18T15:54:50;1.40;;;0.40;;
61096;SDS011;46977;50.936;6.908;2023-02-18T15:57:53;0.93;;;0.30;;
61096;SDS011;46977;50.936;6.908;2023-02-18T16:00:56;0.55;;;0.30;;
61096;SDS011;46977;50.936;6.908;2023-02-18T16:04:01;0.40;;;0.40;;
61096;SDS011;46977;50.936;6.908;2023-02-18T16:07:18;1.20;;;0.40;;
61096;SDS011;46977;50.936;6.908;2023-02-18T16:10:22;0.30;;;0.30;;
61096;SDS011;46977;50.936;6.908;2023-02-18T16:13:27;0.30;;;0.30;;
61096;SDS011;46977;50.936;6.908;2023-02-18T16:16:33;0.50;;;0.40;;
61096;SDS011;46977;50.936;6.908;2023-02-18T16:19:38;0.88;;;0.30;;
61096;SDS011;46977;50.936;6.908;2023-02-18T16:26:08;0.30;;;0.30;;
61096;SDS011;46977;50.936;6.908;2023-02-18T16:29:23;0.50;;;0.47;;
61096;SDS011;46977;50.936;6.908;2023-02-18T16:32:26;0.30;;;0.30;;
61096;SDS011;46977;50.936;6.908;2023-02-18T16:35:29;1.48;;;0.40;;
61096;SDS011;46977;50.936;6.908;2023-02-18T16:38:49;0.70;;;0.40;;
61096;SDS011;46977;50.936;6.908;2023-02-18T16:41:52;0.75;;;0.47;;
61096;SDS011;46977;50.936;6.908;2023-02-18T16:44:55;0.50;;;0.40;;
61096;SDS011;46977;50.936;6.908;2023-02-18T16:47:58;0.30;;;0.30;;
61096;SDS011;46977;50.936;6.908;2023-02-18T16:51:01;0.40;;;0.40;;
61096;SDS011;46977;50.936;6.908;2023-02-18T16:54:08;0.47;;;0.45;;
61096;SDS011;46977;50.936;6.908;2023-02-18T16:57:11;2.28;;;0.50;;
61096;SDS011;46977;50.936;6.908;2023-02-18T17:00:16;1.17;;;0.60;;
61096;SDS011;46977;50.936;6.908;2023-02-18T17:03:19;0.93;;;0.60;;
61096;SDS011;46977;50.936;6.908;2023-02-18T17:06:22;1.42;;;0.70;;
61096;SDS011;46977;50.936;6.908;2023-02-18T17:09:24;1.35;;;1.25;;
61096;SDS011;46977;50.936;6.908;2023-02-18T17:12:28;1.20;;;0.70;;
61096;SDS011;46977;50.936;6.908;2023-02-18T17:15:32;1.50;;;1.05;;
61096;SDS011;46977;50.936;6.908;2023-02-18T17:18:35;1.17;;;0.65;;
61096;SDS011;46977;50.936;6.908;2023-02-18T17:21:38;0.88;;;0.73;;
61096;SDS011;46977;50.936;6.908;2023-02-18T17:24:41;1.25;;;0.60;;
61096;SDS011;46977;50.936;6.908;2023-02-18T17:27:43;0.75;;;0.73;;
61096;SDS011;46977;50.936;6.908;2023-02-18T17:30:51;0.88;;;0.80;;
61096;SDS011;46977;50.936;6.908;2023-02-18T17:33:57;2.05;;;0.90;;
61096;SDS011;46977;50.936;6.908;2023-02-18T17:37:01;1.50;;;0.82;;
61096;SDS011;46977;50.936;6.908;2023-02-18T17:40:03;0.77;;;0.70;;
61096;SDS011;46977;50.936;6.908;2023-02-18T17:43:08;1.40;;;0.90;;
61096;SDS011;46977;50.936;6.908;2023-02-18T17:46:14;1.20;;;1.05;;
61096;SDS011;46977;50.936;6.908;2023-02-18T17:49:17;2.00;;;1.33;;
61096;SDS011;46977;50.936;6.908;2023-02-18T17:52:24;2.85;;;1.98;;
61096;SDS011;46977;50.936;6.908;2023-02-18T17:55:30;1.02;;;1.02;;
61096;SDS011;46977;50.936;6.908;2023-02-18T17:58:33;1.40;;;1.30;;
61096;SDS011;46977;50.936;6.908;2023-02-18T18:01:37;1.40;;;1.10;;
61096;SDS011;46977;50.936;6.908;2023-02-18T18:04:40;1.50;;;1.40;;
61096;SDS011;46977;50.936;6.908;2023-02-18T18:07:42;2.30;;;2.20;;
61096;SDS011;46977;50.936;6.908;2023-02-18T18:10:46;2.63;;;2.53;;
61096;SDS011;46977;50.936;6.908;2023-02-18T18:13:51;2.40;;;2.22;;
61096;SDS011;46977;50.936;6.908;2023-02-18T18:16:55;2.70;;;2.50;;
61096;SDS011;46977;50.936;6.908;2023-02-18T18:19:58;2.83;;;2.63;;
61096;SDS011;46977;50.936;6.908;2023-02-18T18:23:00;2.90;;;2.70;;
61096;SDS011;46977;50.936;6.908;2023-02-18T18:26:04;2.72;;;2.50;;
61096;SDS011;46977;50.936;6.908;2023-02-18T18:29:06;2.58;;;2.38;;
61096;SDS011;46977;50.936;6.908;2023-02-18T18:32:10;2.83;;;2.63;;
61096;SDS011;46977;50.936;6.908;2023-02-18T18:35:16;2.90;;;2.70;;
61096;SDS011;46977;50.936;6.908;2023-02-18T18:38:21;2.70;;;2.50;;
61096;SDS011;46977;50.936;6.908;2023-02-18T18:41:25;2.45;;;2.35;;
61096;SDS011;46977;50.936;6.908;2023-02-18T18:44:27;2.97;;;2.78;;
61096;SDS011;46977;50.936;6.908;2023-02-18T18:47:31;3.17;;;2.90;;
61096;SDS011;46977;50.936;6.908;2023-02-18T18:50:33;2.92;;;2.67;;
61096;SDS011;46977;50.936;6.908;2023-02-18T18:53:38;2.97;;;2.63;;
61096;SDS011;46977;50.936;6.908;2023-02-18T18:56:40;3.03;;;2.78;;
61096;SDS011;46977;50.936;6.908;2023-02-18T18:59:43;2.75;;;2.65;;
61096;SDS011;46977;50.936;6.908;2023-02-18T19:02:47;2.50;;;2.40;;
61096;SDS011;46977;50.936;6.908;2023-02-18T19:05:49;2.50;;;2.30;;
61096;SDS011;46977;50.936;6.908;2023-02-18T19:08:52;4.68;;;2.75;;
61096;SDS011;46977;50.936;6.908;2023-02-18T19:11:54;2.03;;;1.92;;
61096;SDS011;46977;50.936;6.908;2023-02-18T19:14:57;2.63;;;2.42;;
61096;SDS011;46977;50.936;6.908;2023-02-18T19:18:01;2.35;;;2.25;;
61096;SDS011;46977;50.936;6.908;2023-02-18T19:21:03;2.35;;;2.15;;
61096;SDS011;46977;50.936;6.908;2023-02-18T19:24:06;1.80;;;1.70;;